createdAt,value
2023-01-26T00:02:28.300Z,5.63
2023-01-26T00:04:56.578Z,7.37
2023-01-26T00:07:24.912Z,7.73
2023-01-26T00:09:53.193Z,7.17
2023-01-26T00:12:21.519Z,6.83
2023-01-26T00:14:51.257Z,7.07
2023-01-26T00:17:27.053Z,7.37
2023-01-26T00:19:56.637Z,6.70
2023-01-26T00:22:27.068Z,7.33
2023-01-26T00:24:55.387Z,7.03
2023-01-26T00:27:23.774Z,6.83
2023-01-26T00:29:53.488Z,6.70
2023-01-26T00:32:21.793Z,7.20
2023-01-26T00:34:50.083Z,6.10
2023-01-26T00:37:18.366Z,6.57
2023-01-26T00:39:46.770Z,5.97
2023-01-26T00:42:16.023Z,5.70
2023-01-26T00:44:44.932Z,6.80
2023-01-26T00:47:15.446Z,6.80
2023-01-26T00:49:43.736Z,7.20
2023-01-26T00:52:12.939Z,6.50
2023-01-26T00:54:41.499Z,5.97
2023-01-26T00:57:09.944Z,6.23
2023-01-26T00:59:38.275Z,6.73
2023-01-26T01:02:06.746Z,6.00
2023-01-26T01:04:36.502Z,7.67
2023-01-26T01:07:04.854Z,5.90
2023-01-26T01:09:33.162Z,6.67
2023-01-26T01:12:01.527Z,7.50
2023-01-26T01:14:29.995Z,6.67
2023-01-26T01:16:58.291Z,7.03
2023-01-26T01:19:27.443Z,6.10
2023-01-26T01:21:57.256Z,5.83
2023-01-26T01:24:25.954Z,6.83
2023-01-26T01:26:54.215Z,8.00
2023-01-26T01:29:22.553Z,8.70
2023-01-26T01:31:50.930Z,7.53
2023-01-26T01:34:19.316Z,7.50
2023-01-26T01:36:47.692Z,6.47
2023-01-26T01:39:20.029Z,8.00
2023-01-26T01:41:48.468Z,6.90
2023-01-26T01:44:18.982Z,7.43
2023-01-26T01:46:54.916Z,6.63
2023-01-26T01:49:26.894Z,8.00
2023-01-26T01:52:01.532Z,7.37
2023-01-26T01:54:35.967Z,7.37
2023-01-26T01:57:15.890Z,6.90
2023-01-26T01:59:47.716Z,7.40
2023-01-26T02:02:16.580Z,6.50
2023-01-26T02:04:45.339Z,7.17
2023-01-26T02:07:13.766Z,7.90
2023-01-26T02:10:02.461Z,6.67
2023-01-26T02:12:33.671Z,8.60
2023-01-26T02:15:03.983Z,7.27
2023-01-26T02:17:32.401Z,7.83
2023-01-26T02:20:09.552Z,7.73
2023-01-26T02:22:45.699Z,7.77
2023-01-26T02:25:26.060Z,7.37
2023-01-26T02:27:55.803Z,7.97
2023-01-26T02:30:25.244Z,8.13
2023-01-26T02:32:54.072Z,9.53
2023-01-26T02:35:22.351Z,10.18
2023-01-26T02:37:50.728Z,8.23
2023-01-26T02:40:31.352Z,9.63
2023-01-26T02:43:00.134Z,9.17
2023-01-26T02:45:30.972Z,9.83
2023-01-26T02:48:02.545Z,9.40
2023-01-26T02:50:29.859Z,8.57
2023-01-26T02:52:58.222Z,9.40
2023-01-26T02:55:26.374Z,7.97
2023-01-26T02:57:56.483Z,9.83
2023-01-26T03:00:28.042Z,10.77
2023-01-26T03:02:58.732Z,9.00
2023-01-26T03:05:27.538Z,8.83
2023-01-26T03:07:56.262Z,9.03
2023-01-26T03:10:27.122Z,9.83
2023-01-26T03:12:55.542Z,11.10
2023-01-26T03:15:43.907Z,8.27
2023-01-26T03:18:27.675Z,9.17
2023-01-26T03:21:13.707Z,9.33
2023-01-26T03:23:59.568Z,11.65
2023-01-26T03:26:45.301Z,10.27
2023-01-26T03:29:13.792Z,8.97
2023-01-26T03:31:43.551Z,9.77
2023-01-26T03:34:12.109Z,10.87
2023-01-26T03:36:40.425Z,9.37
2023-01-26T03:39:08.864Z,11.00
2023-01-26T03:41:54.633Z,9.87
2023-01-26T03:44:40.311Z,9.80
2023-01-26T03:47:27.031Z,11.98
2023-01-26T03:50:13.278Z,10.97
2023-01-26T03:52:59.086Z,11.33
2023-01-26T03:55:44.772Z,9.67
2023-01-26T03:58:13.016Z,11.23
2023-01-26T04:00:41.395Z,8.87
2023-01-26T04:03:28.831Z,10.20
2023-01-26T04:06:17.140Z,10.20
2023-01-26T04:08:45.944Z,10.97
2023-01-26T04:11:16.552Z,12.35
2023-01-26T04:14:02.160Z,9.70
2023-01-26T04:16:47.436Z,9.67
2023-01-26T04:19:34.545Z,10.90
2023-01-26T04:22:02.801Z,11.57
2023-01-26T04:24:31.152Z,10.57
2023-01-26T04:26:59.464Z,10.63
2023-01-26T04:29:27.858Z,9.33
2023-01-26T04:31:56.134Z,10.47
2023-01-26T04:34:25.830Z,12.05
2023-01-26T04:36:54.419Z,10.10
2023-01-26T04:39:22.712Z,10.00
2023-01-26T04:41:51.026Z,10.37
2023-01-26T04:44:19.288Z,10.63
2023-01-26T04:46:48.934Z,10.80
2023-01-26T04:49:17.237Z,9.63
2023-01-26T04:51:46.922Z,10.43
2023-01-26T04:54:15.269Z,9.73
2023-01-26T04:56:43.581Z,9.63
2023-01-26T04:59:14.654Z,10.47
2023-01-26T05:01:43.177Z,11.10
2023-01-26T05:04:13.924Z,9.27
2023-01-26T05:06:43.227Z,10.90
2023-01-26T05:09:13.125Z,10.37
2023-01-26T05:11:41.451Z,10.60
2023-01-26T05:14:09.792Z,11.03
2023-01-26T05:16:38.183Z,9.43
2023-01-26T05:19:06.518Z,10.50
2023-01-26T05:21:34.803Z,10.00
2023-01-26T05:24:03.112Z,11.02
2023-01-26T05:26:32.878Z,10.90
2023-01-26T05:29:01.245Z,11.63
2023-01-26T05:31:29.683Z,10.73
2023-01-26T05:33:58.245Z,10.73
2023-01-26T05:36:26.686Z,10.77
2023-01-26T05:38:54.949Z,9.87
2023-01-26T05:41:26.120Z,11.30
2023-01-26T05:43:55.834Z,10.83
2023-01-26T05:46:24.216Z,12.00
2023-01-26T05:48:52.499Z,11.17
2023-01-26T05:51:20.801Z,9.97
2023-01-26T05:53:49.094Z,10.67
2023-01-26T05:56:17.382Z,10.80
2023-01-26T05:58:45.696Z,11.20
2023-01-26T06:01:15.423Z,10.40
2023-01-26T06:03:43.727Z,9.17
2023-01-26T06:06:12.004Z,10.63
2023-01-26T06:08:40.243Z,10.70
2023-01-26T06:11:08.733Z,10.23
2023-01-26T06:13:37.114Z,10.03
2023-01-26T06:16:05.655Z,10.23
2023-01-26T06:18:35.374Z,9.27
2023-01-26T06:21:03.721Z,10.33
2023-01-26T06:23:32.143Z,9.20
2023-01-26T06:26:00.946Z,11.00
2023-01-26T06:28:29.848Z,10.20
2023-01-26T06:31:01.619Z,10.23
2023-01-26T06:33:30.466Z,10.53
2023-01-26T06:36:02.926Z,10.70
2023-01-26T06:38:31.263Z,9.97
2023-01-26T06:41:03.185Z,10.17
2023-01-26T06:43:31.652Z,10.17
2023-01-26T06:46:00.557Z,11.30
2023-01-26T06:48:30.729Z,9.73
2023-01-26T06:51:07.266Z,10.57
2023-01-26T06:53:38.879Z,10.73
2023-01-26T06:56:07.506Z,11.27
2023-01-26T06:58:35.804Z,11.47
2023-01-26T07:01:04.158Z,11.93
2023-01-26T07:03:32.660Z,10.87
2023-01-26T07:06:02.553Z,10.73
2023-01-26T07:08:30.818Z,9.90
2023-01-26T07:10:59.165Z,9.80
2023-01-26T07:13:27.681Z,11.07
2023-01-26T07:16:12.294Z,10.00
2023-01-26T07:18:43.340Z,11.83
2023-01-26T07:21:15.196Z,13.33
2023-01-26T07:23:43.723Z,11.00
2023-01-26T07:26:12.402Z,9.63
2023-01-26T07:28:40.831Z,8.97
2023-01-26T07:31:11.901Z,10.40
2023-01-26T07:33:40.390Z,9.10
2023-01-26T07:36:08.963Z,10.67
2023-01-26T07:38:38.850Z,9.77
2023-01-26T07:41:10.422Z,9.37
2023-01-26T07:43:40.103Z,9.37
2023-01-26T07:58:05.579Z,10.30
2023-01-26T08:00:33.860Z,9.33
2023-01-26T08:03:02.270Z,9.00
2023-01-26T08:05:30.647Z,9.60
2023-01-26T08:07:59.629Z,9.43
2023-01-26T08:10:28.246Z,10.93
2023-01-26T08:12:56.631Z,10.87
2023-01-26T08:15:26.398Z,9.57
2023-01-26T08:17:55.605Z,9.00
2023-01-26T08:20:24.486Z,9.97
2023-01-26T08:22:52.802Z,9.43
2023-01-26T08:25:21.107Z,9.03
2023-01-26T08:27:49.419Z,9.23
2023-01-26T08:30:18.738Z,10.07
2023-01-26T08:32:48.488Z,9.80
2023-01-26T08:35:16.969Z,9.20
2023-01-26T08:37:45.332Z,10.43
2023-01-26T08:40:14.694Z,10.00
2023-01-26T08:42:43.049Z,8.73
2023-01-26T08:45:12.294Z,9.67
2023-01-26T08:47:40.594Z,10.87
2023-01-26T08:50:11.893Z,9.80
2023-01-26T08:52:40.443Z,10.03
2023-01-26T08:55:09.393Z,9.63
2023-01-26T08:57:37.712Z,9.70
2023-01-26T09:00:07.340Z,9.70
2023-01-26T09:02:35.788Z,8.80
2023-01-26T09:05:05.553Z,9.37
2023-01-26T09:07:35.271Z,10.27
2023-01-26T09:10:03.533Z,10.13
2023-01-26T09:12:31.857Z,10.50
2023-01-26T09:15:00.183Z,10.07
2023-01-26T09:17:28.566Z,9.10
2023-01-26T09:19:56.876Z,10.50
2023-01-26T09:22:25.184Z,9.67
2023-01-26T09:24:54.869Z,10.30
2023-01-26T09:27:23.223Z,11.13
2023-01-26T09:29:52.269Z,10.97
2023-01-26T09:32:21.152Z,11.50
2023-01-26T09:34:49.928Z,10.57
2023-01-26T09:37:18.681Z,10.00
2023-01-26T09:39:49.713Z,10.37
2023-01-26T09:42:50.836Z,11.27
2023-01-26T09:45:32.436Z,11.17
2023-01-26T09:48:16.731Z,10.13
2023-01-26T09:50:49.868Z,11.20
2023-01-26T09:53:21.385Z,10.37
2023-01-26T09:55:50.499Z,9.97
2023-01-26T09:58:29.449Z,10.73
2023-01-26T10:01:02.343Z,11.37
2023-01-26T10:03:36.918Z,10.40
2023-01-26T10:06:14.716Z,10.13
2023-01-26T10:08:44.796Z,11.60
2023-01-26T10:11:20.883Z,11.13
2023-01-26T10:13:57.033Z,12.10
2023-01-26T10:16:25.472Z,11.50
2023-01-26T10:18:59.407Z,11.93
2023-01-26T10:21:33.400Z,10.93
2023-01-26T10:24:03.420Z,12.67
2023-01-26T10:26:33.771Z,11.77
2023-01-26T10:29:05.288Z,13.20
2023-01-26T10:31:35.396Z,12.07
2023-01-26T10:34:14.106Z,13.27
2023-01-26T10:36:45.136Z,12.07
2023-01-26T10:39:15.625Z,10.70
2023-01-26T10:41:58.280Z,12.23
2023-01-26T10:44:33.912Z,12.83
2023-01-26T10:47:08.548Z,12.07
2023-01-26T10:49:36.867Z,11.33
2023-01-26T10:52:17.456Z,12.57
2023-01-26T10:54:46.544Z,12.77
2023-01-26T10:57:28.120Z,12.90
2023-01-26T10:59:59.818Z,15.00
2023-01-26T11:02:30.225Z,12.70
2023-01-26T11:05:23.328Z,13.90
2023-01-26T11:07:55.348Z,12.90
2023-01-26T11:10:32.803Z,14.43
2023-01-26T11:13:16.714Z,13.37
2023-01-26T11:15:48.902Z,14.80
2023-01-26T11:18:42.645Z,12.60
2023-01-26T11:21:18.874Z,14.13
2023-01-26T11:24:01.904Z,12.67
2023-01-26T11:26:59.882Z,12.53
2023-01-26T11:29:47.800Z,14.87
2023-01-26T11:32:27.356Z,12.73
2023-01-26T11:35:07.154Z,12.60
2023-01-26T11:37:41.319Z,13.63
2023-01-26T11:40:33.404Z,13.53
2023-01-26T11:43:17.762Z,12.63
2023-01-26T11:46:12.306Z,13.70
2023-01-26T11:48:52.831Z,16.88
2023-01-26T12:04:48.130Z,15.13
2023-01-26T12:07:24.288Z,12.97
2023-01-26T12:09:53.367Z,13.83
2023-01-26T12:12:29.768Z,13.03
2023-01-26T12:15:05.878Z,14.00
2023-01-26T12:17:44.546Z,13.53
2023-01-26T12:20:29.225Z,14.60
2023-01-26T12:23:04.710Z,15.32
2023-01-26T12:25:36.266Z,14.10
2023-01-26T12:28:15.850Z,14.70
2023-01-26T12:30:53.494Z,13.90
2023-01-26T12:33:22.208Z,14.63
2023-01-26T12:36:09.511Z,12.87
2023-01-26T12:38:57.404Z,14.93
2023-01-26T12:41:36.722Z,13.70
2023-01-26T12:44:27.233Z,13.30
2023-01-26T12:47:00.846Z,12.87
2023-01-26T12:49:38.519Z,13.30
2023-01-26T12:52:13.592Z,15.17
2023-01-26T12:54:45.934Z,14.83
2023-01-26T12:57:19.146Z,13.53
2023-01-26T12:59:49.227Z,13.33
2023-01-26T13:02:28.179Z,13.10
2023-01-26T13:04:57.988Z,14.13
2023-01-26T13:07:33.885Z,12.83
2023-01-26T13:10:25.469Z,14.87
2023-01-26T13:12:56.184Z,14.03
2023-01-26T13:15:26.338Z,13.87
2023-01-26T13:17:57.115Z,14.07
2023-01-26T13:20:48.497Z,14.27
2023-01-26T13:23:43.606Z,12.93
2023-01-26T13:26:33.159Z,15.20
2023-01-26T13:29:33.116Z,13.70
2023-01-26T13:32:22.937Z,13.30
2023-01-26T13:34:54.851Z,15.63
2023-01-26T13:37:29.574Z,13.47
2023-01-26T13:40:03.875Z,14.17
2023-01-26T13:42:39.066Z,12.73
2023-01-26T13:45:18.116Z,13.13
2023-01-26T13:47:50.444Z,13.57
2023-01-26T13:50:30.786Z,12.63
2023-01-26T13:52:59.309Z,12.30
2023-01-26T13:55:31.620Z,13.07
2023-01-26T13:58:13.108Z,12.57
2023-01-26T14:00:41.636Z,13.95
2023-01-26T14:03:22.714Z,11.63
2023-01-26T14:05:57.301Z,12.50
2023-01-26T14:08:26.236Z,11.00
2023-01-26T14:11:05.953Z,11.37
2023-01-26T14:13:37.607Z,11.83
2023-01-26T14:16:07.781Z,11.23
2023-01-26T14:18:36.129Z,11.27
2023-01-26T14:21:06.720Z,11.40
2023-01-26T14:23:37.628Z,10.70
2023-01-26T14:26:13.682Z,9.80
2023-01-26T14:28:44.284Z,11.60
2023-01-26T14:31:18.250Z,10.83
2023-01-26T14:33:46.678Z,10.23
2023-01-26T14:36:17.258Z,10.00
2023-01-26T14:38:48.572Z,10.03
2023-01-26T14:41:23.440Z,9.80
2023-01-26T14:43:56.060Z,8.70
2023-01-26T14:46:30.410Z,8.77
2023-01-26T14:49:02.029Z,9.20
2023-01-26T14:51:32.287Z,8.30
2023-01-26T14:54:02.550Z,7.80
2023-01-26T14:56:36.544Z,8.40
2023-01-26T14:59:06.161Z,7.83
2023-01-26T15:01:35.121Z,8.30
2023-01-26T15:04:06.095Z,9.23
2023-01-26T15:06:34.922Z,9.77
2023-01-26T15:09:06.574Z,10.20
2023-01-26T15:11:55.980Z,9.90
2023-01-26T15:14:37.061Z,9.17
2023-01-26T15:17:06.016Z,9.67
2023-01-26T15:19:41.465Z,9.77
2023-01-26T15:22:22.368Z,10.83
2023-01-26T15:25:04.632Z,9.93
2023-01-26T15:27:36.381Z,9.70
2023-01-26T15:30:06.652Z,9.93
2023-01-26T15:32:42.860Z,10.47
2023-01-26T15:35:24.035Z,10.30
2023-01-26T15:38:03.065Z,10.40
2023-01-26T15:40:32.167Z,11.23
2023-01-26T15:43:12.919Z,10.57
2023-01-26T15:45:43.539Z,10.77
2023-01-26T15:48:11.844Z,13.40
2023-01-26T15:50:40.110Z,12.03
2023-01-26T15:53:14.054Z,12.63
2023-01-26T15:55:44.217Z,11.63
2023-01-26T15:58:13.946Z,13.20
2023-01-26T16:00:42.291Z,11.83
2023-01-26T16:03:16.251Z,11.77
2023-01-26T16:05:47.821Z,12.90
2023-01-26T16:08:16.438Z,14.23
2023-01-26T16:10:45.084Z,12.83
2023-01-26T16:13:17.712Z,12.00
2023-01-26T16:15:47.947Z,14.10
2023-01-26T16:18:16.278Z,13.07
2023-01-26T16:20:46.885Z,12.73
2023-01-26T16:23:20.223Z,13.50
2023-01-26T16:25:52.067Z,13.17
2023-01-26T16:28:22.320Z,14.67
2023-01-26T16:30:51.866Z,14.77
2023-01-26T16:33:22.144Z,14.53
2023-01-26T16:35:50.422Z,14.83
2023-01-26T16:38:18.693Z,15.70
2023-01-26T16:40:49.548Z,14.80
2023-01-26T16:43:23.937Z,13.57
2023-01-26T16:45:52.858Z,13.23
2023-01-26T16:48:21.722Z,14.30
2023-01-26T16:50:53.829Z,15.65
2023-01-26T16:53:26.708Z,14.53
2023-01-26T16:55:55.461Z,13.30
2023-01-26T16:58:26.603Z,14.20
2023-01-26T17:00:55.841Z,13.60
2023-01-26T17:03:24.586Z,14.20
2023-01-26T17:05:53.035Z,13.97
2023-01-26T17:08:21.345Z,14.50
2023-01-26T17:11:01.588Z,14.93
2023-01-26T17:13:32.409Z,14.43
2023-01-26T17:16:00.768Z,13.97
2023-01-26T17:18:29.103Z,15.27
2023-01-26T17:21:03.863Z,15.27
2023-01-26T17:23:32.497Z,16.10
2023-01-26T17:26:01.453Z,17.05
2023-01-26T17:28:31.199Z,15.87
2023-01-26T17:31:01.382Z,13.73
2023-01-26T17:33:30.949Z,14.10
2023-01-26T17:36:02.831Z,13.57
2023-01-26T17:38:31.189Z,13.67
2023-01-26T17:41:00.466Z,14.87
2023-01-26T17:43:29.017Z,14.97
2023-01-26T17:46:06.381Z,14.63
2023-01-26T17:48:36.440Z,14.83
2023-01-26T17:51:07.554Z,16.03
2023-01-26T17:53:39.297Z,13.90
2023-01-26T17:56:08.807Z,15.47
2023-01-26T17:58:37.361Z,15.33
2023-01-26T18:01:08.413Z,15.27
2023-01-26T18:03:40.702Z,13.77
2023-01-26T18:06:09.339Z,16.00
2023-01-26T18:08:38.706Z,13.93
2023-01-26T18:11:09.172Z,15.20
2023-01-26T18:13:37.708Z,13.67
2023-01-26T18:16:09.226Z,14.33
2023-01-26T18:18:37.928Z,15.60
2023-01-26T18:21:14.174Z,13.40
2023-01-26T18:23:45.823Z,13.87
2023-01-26T18:26:14.416Z,14.97
2023-01-26T18:28:43.320Z,13.40
2023-01-26T18:31:14.660Z,13.53
2023-01-26T18:33:43.334Z,14.30
2023-01-26T18:36:13.976Z,15.35
2023-01-26T18:38:43.463Z,13.77
2023-01-26T18:41:12.378Z,13.73
2023-01-26T18:43:41.149Z,15.13
2023-01-26T18:46:10.142Z,13.30
2023-01-26T18:48:39.853Z,17.13
2023-01-26T18:51:08.745Z,13.50
2023-01-26T18:53:38.688Z,13.53
2023-01-26T18:56:09.124Z,13.67
2023-01-26T18:58:38.824Z,14.17
2023-01-26T19:01:11.480Z,14.93
2023-01-26T19:03:47.349Z,14.50
2023-01-26T19:06:18.318Z,14.20
2023-01-26T19:08:47.140Z,14.17
2023-01-26T19:11:15.783Z,12.97
2023-01-26T19:13:48.871Z,14.23
2023-01-26T19:16:17.336Z,13.73
2023-01-26T19:18:47.077Z,12.20
2023-01-26T19:21:15.568Z,14.60
2023-01-26T19:23:43.929Z,13.90
2023-01-26T19:26:13.447Z,15.88
2023-01-26T19:28:42.189Z,14.40
2023-01-26T19:31:11.250Z,13.47
2023-01-26T19:33:39.980Z,13.47
2023-01-26T19:36:10.297Z,13.80
2023-01-26T19:38:40.248Z,16.25
2023-01-26T19:41:08.732Z,14.40
2023-01-26T19:43:37.169Z,13.80
2023-01-26T19:46:08.422Z,13.60
2023-01-26T19:48:36.962Z,13.63
2023-01-26T19:51:06.531Z,13.40
2023-01-26T19:53:37.890Z,13.53
2023-01-26T19:56:07.489Z,14.53
2023-01-26T19:58:36.238Z,13.63
2023-01-26T20:01:07.092Z,13.73
2023-01-26T20:03:36.342Z,13.73
2023-01-26T20:06:05.697Z,14.23
2023-01-26T20:08:35.502Z,12.10
2023-01-26T20:11:05.097Z,14.07
2023-01-26T20:13:33.846Z,15.10
2023-01-26T20:16:03.701Z,14.33
2023-01-26T20:18:32.925Z,12.00
2023-01-26T20:21:01.341Z,13.93
2023-01-26T20:23:30.143Z,12.97
2023-01-26T20:26:10.530Z,14.63
2023-01-26T20:28:40.225Z,12.70
2023-01-26T20:31:10.470Z,12.60
2023-01-26T20:33:40.107Z,14.27
2023-01-26T20:36:11.095Z,13.43
2023-01-26T20:38:39.598Z,14.18
2023-01-26T20:41:11.021Z,13.23
2023-01-26T20:43:49.478Z,11.67
2023-01-26T20:46:21.679Z,12.23
2023-01-26T20:48:49.938Z,14.25
2023-01-26T20:51:20.406Z,11.57
2023-01-26T20:53:50.167Z,12.80
2023-01-26T20:56:22.801Z,12.43
2023-01-26T20:58:53.878Z,11.73
2023-01-26T21:01:23.465Z,13.43
2023-01-26T21:03:52.205Z,11.73
2023-01-26T21:06:21.988Z,11.40
2023-01-26T21:08:53.508Z,11.03
2023-01-26T21:11:24.836Z,11.90
2023-01-26T21:13:53.815Z,11.60
2023-01-26T21:16:23.132Z,12.07
2023-01-26T21:18:51.767Z,12.77
2023-01-26T21:21:21.695Z,12.07
2023-01-26T21:23:51.358Z,12.40
2023-01-26T21:26:26.849Z,13.73
2023-01-26T21:28:56.810Z,12.03
2023-01-26T21:31:28.079Z,13.20
2023-01-26T21:33:57.085Z,12.77
2023-01-26T21:36:27.276Z,13.00
2023-01-26T21:38:57.816Z,13.47
2023-01-26T21:41:46.034Z,11.87
2023-01-26T21:44:16.590Z,12.13
2023-01-26T21:46:46.550Z,11.77
2023-01-26T21:49:15.544Z,13.75
2023-01-26T21:52:01.377Z,14.07
2023-01-26T21:54:30.159Z,11.90
2023-01-26T21:57:00.473Z,13.10
2023-01-26T21:59:29.227Z,12.77
2023-01-26T22:01:58.788Z,11.90
2023-01-26T22:04:29.490Z,12.73
2023-01-26T22:06:58.384Z,11.93
2023-01-26T22:09:27.009Z,12.67
2023-01-26T22:11:55.272Z,12.60
2023-01-26T22:14:26.274Z,13.37
2023-01-26T22:16:54.891Z,12.83
2023-01-26T22:19:23.203Z,12.40
2023-01-26T22:21:51.554Z,12.63
2023-01-26T22:24:20.055Z,12.37
2023-01-26T22:26:48.897Z,13.37
2023-01-26T22:29:17.254Z,13.77
2023-01-26T22:31:47.087Z,13.70
2023-01-26T22:34:15.548Z,13.57
2023-01-26T22:36:43.897Z,12.57
2023-01-26T22:39:12.898Z,13.60
2023-01-26T22:41:41.246Z,12.47
2023-01-26T22:44:10.004Z,11.53
2023-01-26T22:46:38.587Z,13.00
2023-01-26T22:49:08.279Z,12.23
2023-01-26T22:51:37.672Z,11.67
2023-01-26T22:54:06.711Z,12.03
2023-01-26T22:56:35.171Z,12.13
2023-01-26T22:59:03.534Z,11.83
2023-01-26T23:01:33.951Z,12.50
2023-01-26T23:04:02.918Z,12.07
2023-01-26T23:06:32.724Z,11.50
2023-01-26T23:09:04.655Z,11.43
2023-01-26T23:11:33.166Z,11.13
2023-01-26T23:14:01.859Z,10.30
2023-01-26T23:16:30.809Z,10.97
2023-01-26T23:19:00.581Z,11.27
2023-01-26T23:21:30.163Z,10.10
2023-01-26T23:23:59.853Z,10.37
2023-01-26T23:26:28.281Z,10.60
2023-01-26T23:28:56.630Z,9.57
2023-01-26T23:31:24.980Z,10.20
2023-01-26T23:33:53.375Z,10.13
2023-01-26T23:36:21.978Z,10.07
2023-01-26T23:38:50.306Z,9.50
2023-01-26T23:41:20.337Z,9.20
2023-01-26T23:43:48.593Z,10.53
2023-01-26T23:46:17.076Z,10.13
2023-01-26T23:48:45.407Z,9.17
2023-01-26T23:51:14.062Z,8.60
2023-01-26T23:53:42.528Z,8.80
2023-01-26T23:56:13.743Z,9.33
2023-01-26T23:58:43.692Z,9.27
